Time;durP1;ratioP1;P1;durP2;ratioP2;P2;SDS_P1;SDS_P2;PMS_P1;PMS_P2;Temp;Humidity;BMP_temperature;BMP_pressure;BME280_temperature;BME280_humidity;BME280_pressure;Samples;Min_cycle;Max_cycle;Signal;HPM_P1;HPM_P2
2023/02/18 00:01:14;;;;;;;7.07;1.45;;;13.00;74.90;;;;;;4925014;29;20365;-78
2023/02/18 00:03:41;;;;;;;4.20;1.83;;;12.90;74.70;;;;;;4905187;29;20396;-78
2023/02/18 00:06:28;;;;;;;3.13;1.45;;;12.90;74.80;;;;;;4924306;29;20031;-78
2023/02/18 00:08:57;;;;;;;5.25;1.52;;;12.90;74.80;;;;;;4925856;29;20441;-78
2023/02/18 00:11:23;;;;;;;4.80;1.30;;;12.90;74.80;;;;;;4924861;29;20031;-79
2023/02/18 00:13:54;;;;;;;5.43;1.33;;;12.90;74.80;;;;;;4919832;29;20044;-78
2023/02/18 00:16:22;;;;;;;3.67;1.10;;;12.90;74.80;;;;;;4925424;29;20110;-78
2023/02/18 00:18:48;;;;;;;7.32;1.75;;;12.90;74.80;;;;;;4926265;29;20031;-78
2023/02/18 00:21:14;;;;;;;9.57;1.88;;;12.90;74.80;;;;;;4922587;29;20055;-77
2023/02/18 00:23:41;;;;;;;3.45;1.05;;;12.80;74.60;;;;;;4918212;29;20048;-78
2023/02/18 00:26:10;;;;;;;6.18;1.27;;;12.80;74.60;;;;;;4925416;29;20043;-78
2023/02/18 00:28:38;;;;;;;4.05;1.52;;;12.80;74.60;;;;;;4923750;29;20058;-76
2023/02/18 00:31:26;;;;;;;5.22;1.25;;;12.80;74.60;;;;;;4918625;29;20541;-76
2023/02/18 00:33:52;;;;;;;5.95;2.45;;;12.80;74.60;;;;;;4925300;29;20562;-76
2023/02/18 00:36:21;;;;;;;4.28;1.20;;;12.80;74.50;;;;;;4925275;29;20118;-77
2023/02/18 00:38:55;;;;;;;4.07;1.70;;;12.80;74.50;;;;;;4918126;29;20046;-77
2023/02/18 00:41:23;;;;;;;4.28;1.38;;;12.80;74.50;;;;;;4925461;29;20538;-77
2023/02/18 00:43:50;;;;;;;7.00;1.10;;;12.80;74.40;;;;;;4925028;29;20043;-77
2023/02/18 00:46:19;;;;;;;6.03;1.25;;;12.80;74.50;;;;;;4923825;29;20028;-77
2023/02/18 00:48:45;;;;;;;4.47;1.60;;;12.70;74.20;;;;;;4923454;29;20038;-77
2023/02/18 00:51:11;;;;;;;8.82;1.80;;;12.70;74.20;;;;;;4923680;29;20051;-78
2023/02/18 00:53:39;;;;;;;7.30;1.83;;;12.70;74.20;;;;;;4925209;29;20039;-78
2023/02/18 00:56:05;;;;;;;8.05;1.60;;;12.70;74.20;;;;;;4919356;29;20036;-77
2023/02/18 00:58:31;;;;;;;4.35;1.65;;;12.70;74.20;;;;;;4919316;29;20055;-77
2023/02/18 01:00:58;;;;;;;4.25;1.00;;;12.70;74.20;;;;;;4923316;29;20059;-77
2023/02/18 01:03:25;;;;;;;4.68;1.38;;;12.70;74.10;;;;;;4923974;29;20031;-77
2023/02/18 01:05:51;;;;;;;10.05;1.88;;;12.70;74.10;;;;;;4921813;29;20048;-77
2023/02/18 01:08:19;;;;;;;4.75;1.10;;;12.70;74.10;;;;;;4922445;29;20043;-78
2023/02/18 01:10:47;;;;;;;9.90;2.83;;;12.70;74.00;;;;;;4923835;29;20039;-78
2023/02/18 01:13:14;;;;;;;5.00;1.48;;;12.70;74.00;;;;;;4922300;29;20100;-78
2023/02/18 01:15:41;;;;;;;3.08;1.20;;;12.70;74.00;;;;;;4923846;29;20540;-77
2023/02/18 01:18:10;;;;;;;7.03;1.98;;;12.70;73.90;;;;;;4923475;29;20408;-77
2023/02/18 01:20:38;;;;;;;5.32;1.90;;;12.70;73.90;;;;;;4924965;29;20048;-77
2023/02/18 01:23:04;;;;;;;6.10;1.55;;;12.70;73.80;;;;;;4917102;29;20075;-78
2023/02/18 01:25:31;;;;;;;7.78;1.65;;;12.60;73.60;;;;;;4922756;29;20082;-77
2023/02/18 01:27:57;;;;;;;3.47;1.35;;;12.70;73.70;;;;;;4913213;29;20514;-78
2023/02/18 01:30:23;;;;;;;5.20;1.38;;;12.70;73.60;;;;;;4924940;29;20048;-77
2023/02/18 01:32:50;;;;;;;5.55;1.88;;;12.70;73.60;;;;;;4923510;29;20488;-77
2023/02/18 01:35:18;;;;;;;5.38;1.27;;;12.70;73.50;;;;;;4921481;29;20040;-78
2023/02/18 01:37:45;;;;;;;7.68;1.30;;;12.70;73.50;;;;;;4925346;29;20036;-76
2023/02/18 01:40:16;;;;;;;5.68;1.70;;;12.60;73.20;;;;;;4910516;29;20055;-77
2023/02/18 01:42:43;;;;;;;7.10;1.45;;;12.60;73.10;;;;;;4925121;29;20488;-77
2023/02/18 01:45:36;;;;;;;6.93;1.52;;;12.60;73.10;;;;;;4925993;29;20150;-77
2023/02/18 01:48:04;;;;;;;4.85;1.40;;;12.60;73.00;;;;;;4928994;29;20040;-76
2023/02/18 01:50:33;;;;;;;6.95;1.70;;;12.60;73.00;;;;;;4918087;29;20050;-76
2023/02/18 01:53:01;;;;;;;3.60;1.20;;;12.60;72.90;;;;;;4927164;29;20050;-78
2023/02/18 01:55:30;;;;;;;5.88;2.05;;;12.60;72.90;;;;;;4924285;29;20028;-78
2023/02/18 01:57:56;;;;;;;5.68;1.27;;;12.60;72.80;;;;;;4927394;29;20031;-79
2023/02/18 02:00:23;;;;;;;5.93;1.42;;;12.60;72.80;;;;;;4922240;29;20055;-79
2023/02/18 02:02:51;;;;;;;4.72;1.20;;;12.60;72.80;;;;;;4928119;29;20082;-79
2023/02/18 02:05:19;;;;;;;4.53;1.20;;;12.60;72.80;;;;;;4928296;29;20361;-78
2023/02/18 02:07:47;;;;;;;3.92;1.30;;;12.60;72.80;;;;;;4924651;29;20203;-79
2023/02/18 02:10:15;;;;;;;4.78;1.23;;;12.60;72.80;;;;;;4926725;29;20028;-79
2023/02/18 02:12:56;;;;;;;4.13;1.00;;;12.60;72.70;;;;;;4927443;29;20102;-78
2023/02/18 02:15:36;;;;;;;3.80;1.02;;;12.60;72.70;;;;;;4926497;29;20058;-79
2023/02/18 02:18:17;;;;;;;5.68;1.50;;;12.60;72.70;;;;;;4926859;29;20035;-79
2023/02/18 02:20:44;;;;;;;5.68;1.38;;;12.60;72.60;;;;;;4926861;29;20047;-79
2023/02/18 02:23:51;;;;;;;4.72;1.38;;;12.60;72.60;;;;;;4924349;29;20671;-78
2023/02/18 02:26:48;;;;;;;2.45;1.35;;;12.60;72.60;;;;;;4915238;29;20126;-79
2023/02/18 02:29:55;;;;;;;2.58;1.08;;;12.60;72.60;;;;;;4924272;29;20060;-79
2023/02/18 02:32:32;;;;;;;3.55;1.00;;;12.50;72.40;;;;;;4928609;29;20043;-79
2023/02/18 02:35:10;;;;;;;4.82;1.20;;;12.60;72.50;;;;;;4925787;29;20046;-78
2023/02/18 02:37:47;;;;;;;6.63;1.40;;;12.60;72.50;;;;;;4928104;29;20039;-78
2023/02/18 02:40:55;;;;;;;5.35;1.75;;;12.50;72.30;;;;;;4925234;29;20516;-78
2023/02/18 02:43:39;;;;;;;2.03;0.80;;;12.50;72.30;;;;;;4896391;29;20500;-78
2023/02/18 02:46:13;;;;;;;5.20;1.10;;;12.50;72.30;;;;;;4909912;29;20588;-78
2023/02/18 02:48:47;;;;;;;3.17;1.15;;;12.50;72.30;;;;;;4929940;29;20450;-79
2023/02/18 02:51:45;;;;;;;4.45;1.40;;;12.50;72.30;;;;;;4926175;29;20062;-79
2023/02/18 02:54:16;;;;;;;5.57;1.00;;;12.50;72.30;;;;;;4926042;29;20115;-78
2023/02/18 02:56:42;;;;;;;4.90;1.20;;;12.60;72.50;;;;;;4930467;29;20043;-79
2023/02/18 02:59:13;;;;;;;4.22;0.95;;;12.60;72.50;;;;;;4928910;29;20431;-78
2023/02/18 03:01:51;;;;;;;5.78;1.92;;;12.50;72.40;;;;;;4929429;29;20051;-78
2023/02/18 03:04:31;;;;;;;3.42;1.52;;;12.50;72.40;;;;;;4930590;29;20039;-78
2023/02/18 03:07:04;;;;;;;3.20;1.38;;;12.60;72.50;;;;;;4928860;29;20495;-78
2023/02/18 03:09:39;;;;;;;4.63;1.92;;;12.60;72.50;;;;;;4928822;29;20090;-78
2023/02/18 03:12:40;;;;;;;5.03;1.55;;;12.60;72.50;;;;;;4929147;29;20074;-78
2023/02/18 03:15:42;;;;;;;3.45;1.10;;;12.60;72.50;;;;;;4918903;29;20499;-78
2023/02/18 03:18:21;;;;;;;4.97;1.00;;;12.60;72.50;;;;;;4931242;29;20055;-78
2023/02/18 03:21:07;;;;;;;3.28;0.73;;;12.50;72.30;;;;;;4929406;29;20052;-78
2023/02/18 03:23:38;;;;;;;4.15;1.08;;;12.60;72.50;;;;;;4926828;29;20043;-78
2023/02/18 03:26:07;;;;;;;5.90;1.25;;;12.60;72.50;;;;;;4929163;29;20038;-78
2023/02/18 03:28:34;;;;;;;4.20;1.10;;;12.50;72.30;;;;;;4924243;29;20267;-79
2023/02/18 03:31:09;;;;;;;5.13;1.25;;;12.50;72.30;;;;;;4928639;29;20051;-77
2023/02/18 03:33:45;;;;;;;6.25;1.00;;;12.50;72.30;;;;;;4930995;29;20091;-78
2023/02/18 03:36:11;;;;;;;6.53;1.13;;;12.50;72.30;;;;;;4929236;29;20047;-78
2023/02/18 03:38:39;;;;;;;6.63;1.35;;;12.50;72.30;;;;;;4931017;29;20479;-78
2023/02/18 03:41:05;;;;;;;4.60;0.90;;;12.50;72.30;;;;;;4928419;29;20153;-77
2023/02/18 03:43:32;;;;;;;6.07;1.30;;;12.50;72.30;;;;;;4928211;29;20036;-78
2023/02/18 03:45:59;;;;;;;5.68;1.13;;;12.50;72.30;;;;;;4929523;29;20050;-78
2023/02/18 03:48:25;;;;;;;8.65;1.30;;;12.50;72.80;;;;;;4927887;29;20028;-77
2023/02/18 03:50:51;;;;;;;7.03;1.58;;;12.50;72.30;;;;;;4930630;29;20050;-77
2023/02/18 03:53:17;;;;;;;2.80;0.80;;;12.50;72.30;;;;;;4928679;29;20039;-78
2023/02/18 03:55:43;;;;;;;6.38;1.63;;;12.50;72.30;;;;;;4927806;29;20187;-79
2023/02/18 03:58:09;;;;;;;3.78;1.08;;;12.50;72.40;;;;;;4920669;29;20497;-79
2023/02/18 04:00:35;;;;;;;5.38;1.58;;;12.50;72.40;;;;;;4930402;29;20124;-79
2023/02/18 04:03:01;;;;;;;2.33;0.90;;;12.50;72.40;;;;;;4930156;29;20039;-79
2023/02/18 04:05:27;;;;;;;2.83;1.15;;;12.50;72.40;;;;;;4930231;29;20163;-78
2023/02/18 04:07:53;;;;;;;4.82;1.30;;;12.50;72.50;;;;;;4926549;29;20039;-79
2023/02/18 04:10:21;;;;;;;3.97;0.98;;;12.50;72.40;;;;;;4927424;29;20263;-79
2023/02/18 04:12:47;;;;;;;3.10;0.95;;;12.50;72.50;;;;;;4923374;29;20545;-79
2023/02/18 04:15:13;;;;;;;4.55;1.50;;;12.50;72.50;;;;;;4930343;29;20066;-78
2023/02/18 04:17:39;;;;;;;5.30;1.23;;;12.50;72.50;;;;;;4928019;29;20075;-78
2023/02/18 04:20:06;;;;;;;7.03;1.13;;;12.50;72.50;;;;;;4926121;29;20047;-78
2023/02/18 04:22:32;;;;;;;5.97;1.05;;;12.40;72.40;;;;;;4925318;29;20492;-78
2023/02/18 04:24:59;;;;;;;5.90;1.67;;;12.40;72.40;;;;;;4928881;29;20039;-78
2023/02/18 04:27:25;;;;;;;9.13;2.47;;;12.40;72.40;;;;;;4928397;29;20118;-78
2023/02/18 04:29:51;;;;;;;3.72;1.40;;;12.40;72.40;;;;;;4926395;29;20191;-78
2023/02/18 04:32:17;;;;;;;4.80;1.17;;;12.40;72.40;;;;;;4922850;29;20190;-77
2023/02/18 04:34:43;;;;;;;5.53;1.55;;;12.40;72.50;;;;;;4928309;29;20114;-77
2023/02/18 04:37:09;;;;;;;4.38;1.30;;;12.40;72.50;;;;;;4929861;29;20458;-78
2023/02/18 04:39:35;;;;;;;6.13;1.02;;;12.40;72.50;;;;;;4927520;29;20158;-78
2023/02/18 04:42:01;;;;;;;8.18;3.17;;;12.40;72.50;;;;;;4924962;29;20595;-78
2023/02/18 04:44:27;;;;;;;3.72;1.10;;;12.40;72.50;;;;;;4927647;29;20039;-77
2023/02/18 04:46:53;;;;;;;6.82;1.25;;;12.40;72.50;;;;;;4929763;29;20028;-77
2023/02/18 04:49:19;;;;;;;3.78;1.40;;;12.40;72.50;;;;;;4924369;29;20028;-79
2023/02/18 04:51:45;;;;;;;6.78;1.45;;;12.40;72.50;;;;;;4930039;29;20519;-79
2023/02/18 04:54:10;;;;;;;6.47;1.50;;;12.40;72.50;;;;;;4928346;29;20035;-78
2023/02/18 04:56:36;;;;;;;5.55;1.75;;;12.40;72.50;;;;;;4927888;29;20460;-77
2023/02/18 04:59:02;;;;;;;4.85;1.55;;;12.40;72.40;;;;;;4924442;29;20028;-78
2023/02/18 05:01:28;;;;;;;5.88;1.50;;;12.50;72.60;;;;;;4928066;29;20054;-77
2023/02/18 05:03:54;;;;;;;5.00;1.48;;;12.40;72.40;;;;;;4924992;29;20076;-77
2023/02/18 05:06:20;;;;;;;3.72;1.15;;;12.50;72.60;;;;;;4927067;29;20032;-78
2023/02/18 05:08:46;;;;;;;6.55;1.15;;;12.50;72.60;;;;;;4929458;29;20032;-78
2023/02/18 05:11:12;;;;;;;4.97;1.17;;;12.50;72.60;;;;;;4927936;29;20031;-78
2023/02/18 05:13:38;;;;;;;4.35;1.15;;;12.40;72.40;;;;;;4926821;29;20149;-78
2023/02/18 05:16:04;;;;;;;5.95;1.42;;;12.50;72.50;;;;;;4929096;29;20043;-78
2023/02/18 05:18:30;;;;;;;7.47;2.03;;;12.40;72.30;;;;;;4924387;29;20618;-79
2023/02/18 05:20:56;;;;;;;7.25;1.48;;;12.50;72.50;;;;;;4933533;29;20043;-90
2023/02/18 05:23:22;;;;;;;4.95;1.50;;;12.50;72.50;;;;;;4933119;28;20115;-90
2023/02/18 05:25:48;;;;;;;5.53;1.50;;;12.50;72.60;;;;;;4926465;29;20040;-86
2023/02/18 05:28:13;;;;;;;7.68;1.30;;;12.50;72.60;;;;;;4922562;29;20035;-78
2023/02/18 05:30:39;;;;;;;4.20;1.15;;;12.50;72.60;;;;;;4928832;29;20075;-74
2023/02/18 05:33:05;;;;;;;7.72;1.60;;;12.50;72.60;;;;;;4929293;29;20060;-79
2023/02/18 05:35:31;;;;;;;10.65;1.73;;;12.50;72.70;;;;;;4921706;29;20852;-78
2023/02/18 05:37:57;;;;;;;5.97;1.75;;;12.50;72.70;;;;;;4928674;29;20047;-77
2023/02/18 05:40:23;;;;;;;7.05;2.35;;;12.50;72.70;;;;;;4926887;29;20112;-78
2023/02/18 05:42:49;;;;;;;9.93;2.38;;;12.60;72.90;;;;;;4927202;29;20055;-79
2023/02/18 05:45:15;;;;;;;4.88;1.63;;;12.50;72.70;;;;;;4922886;29;20028;-79
2023/02/18 05:47:41;;;;;;;7.90;1.23;;;12.60;73.00;;;;;;4919955;29;20047;-78
2023/02/18 05:50:07;;;;;;;8.48;1.65;;;12.60;73.00;;;;;;4906729;29;20040;-78
2023/02/18 05:52:33;;;;;;;8.15;1.55;;;12.50;72.90;;;;;;4924054;29;20075;-79
2023/02/18 05:54:59;;;;;;;5.95;1.70;;;12.50;72.90;;;;;;4920401;29;20492;-79
2023/02/18 05:57:25;;;;;;;7.53;1.30;;;12.60;73.10;;;;;;4922625;29;20052;-79
2023/02/18 05:59:51;;;;;;;7.60;2.25;;;12.60;73.10;;;;;;4925979;29;20028;-78
2023/02/18 06:02:17;;;;;;;7.65;2.03;;;12.60;73.20;;;;;;4921394;29;20099;-79
2023/02/18 06:04:43;;;;;;;8.55;2.17;;;12.60;73.20;;;;;;4922903;29;20031;-79
2023/02/18 06:07:09;;;;;;;9.40;1.88;;;12.60;73.20;;;;;;4920019;29;21343;-79
2023/02/18 06:09:34;;;;;;;6.07;1.48;;;12.60;73.30;;;;;;4928467;29;20115;-79
2023/02/18 06:12:00;;;;;;;6.22;1.58;;;12.60;73.30;;;;;;4916962;29;20039;-80
2023/02/18 06:14:26;;;;;;;7.28;2.00;;;12.60;73.30;;;;;;4921031;29;20488;-79
2023/02/18 06:16:52;;;;;;;8.70;1.75;;;12.60;73.40;;;;;;4917149;29;20047;-79
2023/02/18 06:19:18;;;;;;;5.82;1.58;;;12.60;73.40;;;;;;4922486;29;20120;-79
2023/02/18 06:21:44;;;;;;;8.20;2.00;;;12.60;73.50;;;;;;4918052;29;20039;-85
2023/02/18 06:24:10;;;;;;;7.70;1.48;;;12.60;73.50;;;;;;4926366;29;20518;-79
2023/02/18 06:26:36;;;;;;;9.05;1.38;;;12.60;73.50;;;;;;4923393;29;20036;-82
2023/02/18 06:29:02;;;;;;;6.53;1.90;;;12.60;73.60;;;;;;4923987;29;20051;-83
2023/02/18 06:31:28;;;;;;;5.93;1.70;;;12.60;73.60;;;;;;4927292;29;20052;-88
2023/02/18 06:33:54;;;;;;;6.13;2.22;;;12.60;73.70;;;;;;4924277;29;20040;-85
2023/02/18 06:36:20;;;;;;;9.05;2.72;;;12.60;73.70;;;;;;4930808;29;20369;-87
2023/02/18 06:38:46;;;;;;;7.68;1.90;;;12.60;73.70;;;;;;4924001;29;20122;-89
2023/02/18 06:41:13;;;;;;;9.18;2.22;;;12.60;73.80;;;;;;4925305;29;20451;-86
2023/02/18 06:43:40;;;;;;;11.05;3.00;;;12.60;73.90;;;;;;4925524;29;20444;-85
2023/02/18 06:46:06;;;;;;;8.25;2.78;;;12.60;73.90;;;;;;4922132;29;20130;-89
2023/02/18 06:48:33;;;;;;;11.20;2.92;;;12.60;74.00;;;;;;4923805;29;20303;-84
2023/02/18 06:50:59;;;;;;;9.80;1.73;;;12.60;74.30;;;;;;4923581;29;20492;-80
2023/02/18 06:53:25;;;;;;;8.70;1.70;;;12.60;74.20;;;;;;4918926;29;20032;-82
2023/02/18 06:55:50;;;;;;;9.98;1.80;;;12.60;74.90;;;;;;4927045;29;20448;-85
2023/02/18 06:58:16;;;;;;;9.25;2.83;;;12.70;75.40;;;;;;4925158;29;20071;-92
2023/02/18 07:00:42;;;;;;;10.13;1.85;;;12.90;75.90;;;;;;4926726;29;20127;-88
2023/02/18 07:03:12;;;;;;;8.35;2.03;;;13.10;76.20;;;;;;4925934;29;20111;-90
2023/02/18 07:05:38;;;;;;;13.68;2.55;;;13.30;76.50;;;;;;4926159;29;20098;-85
2023/02/18 07:08:04;;;;;;;8.30;2.80;;;13.40;76.50;;;;;;4921726;29;20040;-85
2023/02/18 07:10:29;;;;;;;8.10;1.77;;;13.50;76.70;;;;;;4922082;29;20039;-83
2023/02/18 07:12:55;;;;;;;9.00;2.22;;;13.60;76.80;;;;;;4922818;29;20028;-84
2023/02/18 07:15:23;;;;;;;6.18;1.95;;;13.70;76.80;;;;;;4925286;29;20044;-86
2023/02/18 07:17:52;;;;;;;6.28;2.08;;;13.80;76.90;;;;;;4923066;29;20459;-85
2023/02/18 07:20:20;;;;;;;10.40;3.30;;;13.80;76.90;;;;;;4923750;29;20154;-84
2023/02/18 07:22:46;;;;;;;9.55;3.30;;;13.80;76.90;;;;;;4925580;29;20392;-83
2023/02/18 07:25:13;;;;;;;7.05;1.90;;;13.90;77.00;;;;;;4922329;29;20440;-83
2023/02/18 07:27:39;;;;;;;8.30;2.70;;;13.90;77.00;;;;;;4920529;29;20436;-84
2023/02/18 07:30:06;;;;;;;6.20;1.83;;;13.90;77.10;;;;;;4924549;29;20598;-85
2023/02/18 07:32:31;;;;;;;6.60;2.08;;;13.80;76.90;;;;;;4921242;29;20199;-86
2023/02/18 07:34:57;;;;;;;6.55;1.88;;;13.90;77.20;;;;;;4926299;29;20035;-84
2023/02/18 07:37:23;;;;;;;6.07;2.03;;;13.80;77.00;;;;;;4927519;29;20555;-84
2023/02/18 07:39:49;;;;;;;7.13;2.50;;;13.80;77.10;;;;;;4923168;29;20594;-81
2023/02/18 07:42:15;;;;;;;6.47;1.95;;;13.80;77.10;;;;;;4923296;29;20044;-81
2023/02/18 07:44:41;;;;;;;7.38;2.60;;;13.80;77.10;;;;;;4923627;29;20579;-83
2023/02/18 07:47:09;;;;;;;7.72;2.08;;;13.80;77.10;;;;;;4919739;29;20031;-82
2023/02/18 07:49:35;;;;;;;7.95;1.90;;;13.80;77.10;;;;;;4913234;29;20083;-82
2023/02/18 07:52:01;;;;;;;13.40;2.00;;;13.80;77.00;;;;;;4923403;29;20043;-79
2023/02/18 07:54:27;;;;;;;11.25;2.55;;;13.80;77.00;;;;;;4923544;29;20062;-81
2023/02/18 07:56:56;;;;;;;9.07;2.47;;;13.80;77.10;;;;;;4923201;29;20069;-82
2023/02/18 07:59:22;;;;;;;12.07;3.72;;;13.80;77.20;;;;;;4920825;29;20028;-92
2023/02/18 08:01:48;;;;;;;7.35;2.65;;;13.80;77.10;;;;;;4925204;28;20302;-91
2023/02/18 08:04:14;;;;;;;8.82;2.42;;;13.80;77.00;;;;;;4907035;29;20465;-88
2023/02/18 08:06:47;;;;;;;10.90;2.28;;;13.70;76.70;;;;;;4925174;29;20043;-82
2023/02/18 08:09:14;;;;;;;10.65;2.33;;;13.80;76.90;;;;;;4921669;29;20760;-82
2023/02/18 08:11:40;;;;;;;8.52;2.65;;;13.80;76.80;;;;;;4921203;29;20036;-89
2023/02/18 08:14:06;;;;;;;9.65;2.30;;;13.70;76.60;;;;;;4921575;29;20072;-84
2023/02/18 08:16:33;;;;;;;15.43;2.88;;;13.70;76.60;;;;;;4922422;29;20040;-87
2023/02/18 08:19:00;;;;;;;12.13;2.67;;;13.70;76.70;;;;;;4922472;29;20111;-85
2023/02/18 08:21:26;;;;;;;11.90;2.70;;;13.70;76.70;;;;;;4924875;29;20050;-84
2023/02/18 08:23:53;;;;;;;12.55;2.97;;;13.60;76.50;;;;;;4918982;29;20122;-84
2023/02/18 08:26:20;;;;;;;12.07;2.40;;;13.60;76.50;;;;;;4923516;29;20118;-85
2023/02/18 08:28:47;;;;;;;9.77;2.28;;;13.60;76.50;;;;;;4925299;29;20036;-86
2023/02/18 08:31:19;;;;;;;13.35;2.70;;;13.60;76.60;;;;;;4924048;29;20444;-83
2023/02/18 08:33:45;;;;;;;14.20;2.88;;;13.60;76.70;;;;;;4920064;29;20236;-89
2023/02/18 08:36:12;;;;;;;15.80;3.08;;;13.60;76.70;;;;;;4923872;29;20075;-81
2023/02/18 08:38:38;;;;;;;13.48;3.70;;;13.60;76.70;;;;;;4920341;29;20035;-84
2023/02/18 08:41:06;;;;;;;10.32;2.03;;;13.60;76.70;;;;;;4920709;29;20044;-85
2023/02/18 08:43:32;;;;;;;9.90;2.30;;;13.50;76.50;;;;;;4920021;29;20228;-83
2023/02/18 08:45:58;;;;;;;12.07;2.92;;;13.60;76.60;;;;;;4906312;29;20047;-83
2023/02/18 08:48:24;;;;;;;12.48;3.40;;;13.50;76.40;;;;;;4915579;29;20388;-82
2023/02/18 08:50:50;;;;;;;11.20;2.85;;;13.50;76.40;;;;;;4918305;29;20028;-84
2023/02/18 08:53:17;;;;;;;8.55;3.00;;;13.40;76.20;;;;;;4924314;29;20028;-84
2023/02/18 08:55:43;;;;;;;10.27;3.05;;;13.40;76.20;;;;;;4919879;29;20043;-85
2023/02/18 08:58:10;;;;;;;11.50;2.72;;;13.40;76.20;;;;;;4918107;29;20559;-84
2023/02/18 09:00:37;;;;;;;13.82;2.90;;;13.40;76.20;;;;;;4921712;29;20040;-83
2023/02/18 09:03:03;;;;;;;12.73;2.40;;;13.40;76.20;;;;;;4920931;29;20039;-84
2023/02/18 09:05:29;;;;;;;11.20;2.75;;;13.40;76.20;;;;;;4914318;29;20043;-83
2023/02/18 09:07:55;;;;;;;10.93;2.90;;;13.40;76.10;;;;;;4921029;29;20035;-83
2023/02/18 09:10:21;;;;;;;8.48;2.80;;;13.40;76.10;;;;;;4919482;29;20035;-79
2023/02/18 09:12:47;;;;;;;9.82;2.25;;;13.40;76.20;;;;;;4901434;29;20046;-78
2023/02/18 09:15:13;;;;;;;6.10;2.22;;;13.40;76.10;;;;;;4919243;29;20323;-78
2023/02/18 09:17:39;;;;;;;7.75;2.17;;;13.40;76.10;;;;;;4922731;29;20512;-80
2023/02/18 09:20:06;;;;;;;13.52;4.18;;;13.40;76.00;;;;;;4922650;29;20040;-85
2023/02/18 09:22:32;;;;;;;12.70;2.90;;;13.40;76.00;;;;;;4923446;29;20047;-85
2023/02/18 09:24:58;;;;;;;9.77;2.47;;;13.40;76.00;;;;;;4922664;29;20503;-84
2023/02/18 09:27:24;;;;;;;11.38;2.70;;;13.40;75.90;;;;;;4921626;29;20035;-85
2023/02/18 09:29:50;;;;;;;9.52;3.20;;;13.40;75.90;;;;;;4919587;29;20055;-85
2023/02/18 09:32:17;;;;;;;17.10;5.22;;;13.40;75.90;;;;;;4922234;29;20259;-85
2023/02/18 09:34:44;;;;;;;13.40;3.13;;;13.30;75.70;;;;;;4923649;29;20036;-80
2023/02/18 09:37:10;;;;;;;13.23;3.72;;;13.40;75.80;;;;;;4919710;29;20036;-78
2023/02/18 09:39:36;;;;;;;13.15;3.83;;;13.40;75.80;;;;;;4921291;29;20035;-80
2023/02/18 09:42:10;;;;;;;10.25;3.53;;;13.40;75.80;;;;;;4916984;29;20067;-76
2023/02/18 09:44:43;;;;;;;10.13;3.42;;;13.40;75.80;;;;;;4922866;29;20042;-78
2023/02/18 09:47:09;;;;;;;;;;;13.40;75.70;;;;;;4937126;29;20048;-79
2023/02/18 09:49:39;;;;;;;11.98;3.40;;;13.40;75.70;;;;;;4918586;29;20332;-79
2023/02/18 09:52:19;;;;;;;14.45;3.67;;;13.40;75.60;;;;;;4922910;29;20055;-77
2023/02/18 09:54:45;;;;;;;10.40;2.78;;;13.40;75.60;;;;;;4923126;29;20059;-82
2023/02/18 09:57:27;;;;;;;13.30;3.40;;;13.40;75.60;;;;;;4923815;29;20090;-80
2023/02/18 10:00:04;;;;;;;9.13;2.67;;;13.40;75.70;;;;;;4924984;29;20104;-80
2023/02/18 10:02:40;;;;;;;13.27;3.45;;;13.40;75.60;;;;;;4926805;29;20511;-79
2023/02/18 10:05:11;;;;;;;15.18;4.53;;;13.40;75.70;;;;;;4924831;29;20039;-79
2023/02/18 10:07:39;;;;;;;15.18;3.40;;;13.40;75.60;;;;;;4931999;29;20158;-84
2023/02/18 10:10:36;;;;;;;11.23;3.38;;;13.50;75.80;;;;;;4923084;29;20028;-78
2023/02/18 10:13:04;;;;;;;10.02;3.47;;;13.40;75.50;;;;;;4919036;29;20063;-77
2023/02/18 10:15:32;;;;;;;14.18;3.70;;;13.50;75.60;;;;;;4924994;29;20374;-77
2023/02/18 10:17:58;;;;;;;14.48;3.72;;;13.60;75.70;;;;;;4923662;29;20444;-78
2023/02/18 10:20:28;;;;;;;16.80;4.00;;;13.60;75.60;;;;;;4922184;29;20412;-84
2023/02/18 10:22:59;;;;;;;19.05;5.85;;;13.70;75.70;;;;;;4925918;29;20158;-82
2023/02/18 10:25:25;;;;;;;13.60;3.55;;;13.70;75.60;;;;;;4907362;29;20043;-84
2023/02/18 10:27:52;;;;;;;8.82;2.85;;;13.80;75.60;;;;;;4918422;29;20028;-81
2023/02/18 10:30:36;;;;;;;12.75;3.55;;;13.80;75.50;;;;;;4925178;29;20450;-81
2023/02/18 10:33:21;;;;;;;13.27;3.33;;;13.80;75.50;;;;;;4922355;29;20187;-82
2023/02/18 10:36:04;;;;;;;11.52;3.25;;;13.90;75.50;;;;;;4924028;29;20071;-82
2023/02/18 10:38:59;;;;;;;10.27;2.60;;;13.90;75.40;;;;;;4925488;29;20483;-82
2023/02/18 10:41:40;;;;;;;13.57;4.18;;;14.00;75.50;;;;;;4925094;29;20447;-81
2023/02/18 10:44:29;;;;;;;13.93;3.88;;;14.10;75.50;;;;;;4918361;29;20126;-81
2023/02/18 10:47:04;;;;;;;18.48;4.32;;;14.10;75.50;;;;;;4924711;29;20043;-82
2023/02/18 10:49:42;;;;;;;12.48;3.08;;;14.10;75.40;;;;;;4921137;29;20082;-80
2023/02/18 10:52:15;;;;;;;13.10;3.10;;;14.20;75.40;;;;;;4924335;29;20047;-79
2023/02/18 10:55:11;;;;;;;17.02;3.92;;;14.20;75.30;;;;;;4916650;29;20042;-81
2023/02/18 10:57:50;;;;;;;14.88;3.60;;;14.20;75.20;;;;;;4919151;29;20143;-80
2023/02/18 11:00:26;;;;;;;17.10;4.38;;;14.30;75.30;;;;;;4924828;29;20615;-79
2023/02/18 11:03:20;;;;;;;15.05;3.28;;;14.40;75.40;;;;;;4925311;29;20115;-79
2023/02/18 11:05:50;;;;;;;14.45;3.60;;;14.40;75.20;;;;;;4924996;29;20093;-81
2023/02/18 11:08:21;;;;;;;16.75;4.38;;;14.40;75.10;;;;;;4923737;29;20040;-81
2023/02/18 11:10:48;;;;;;;13.40;4.32;;;14.60;75.40;;;;;;4915138;29;20042;-77
2023/02/18 11:13:23;;;;;;;11.52;3.70;;;14.70;75.30;;;;;;4922512;29;20039;-77
2023/02/18 11:15:54;;;;;;;11.65;3.55;;;14.70;75.10;;;;;;4923574;29;20044;-78
2023/02/18 11:18:37;;;;;;;13.55;4.40;;;14.80;75.10;;;;;;4921287;29;20528;-77
2023/02/18 11:21:25;;;;;;;14.77;3.85;;;14.80;74.90;;;;;;4922088;29;20070;-77
2023/02/18 11:23:53;;;;;;;12.23;2.78;;;14.90;75.00;;;;;;4913324;29;20251;-77
2023/02/18 11:26:32;;;;;;;13.23;4.10;;;14.90;74.80;;;;;;4922408;29;20043;-78
2023/02/18 11:29:04;;;;;;;11.05;3.10;;;15.00;74.80;;;;;;4916362;29;20594;-77
2023/02/18 11:31:45;;;;;;;12.10;3.47;;;15.10;74.90;;;;;;4925297;29;20039;-78
2023/02/18 11:34:25;;;;;;;10.50;3.28;;;15.10;74.70;;;;;;4923009;29;20604;-77
2023/02/18 11:36:52;;;;;;;13.52;3.90;;;15.20;74.70;;;;;;4921778;29;20116;-82
2023/02/18 11:39:25;;;;;;;12.43;4.55;;;15.20;74.60;;;;;;4923671;29;20043;-85
2023/02/18 11:41:56;;;;;;;11.98;3.53;;;15.20;74.60;;;;;;4924601;29;20052;-84
2023/02/18 11:44:37;;;;;;;13.02;3.55;;;15.30;74.70;;;;;;4922541;29;20122;-82
2023/02/18 11:47:25;;;;;;;11.02;2.67;;;15.30;74.60;;;;;;4923783;29;20031;-82
2023/02/18 11:50:03;;;;;;;8.63;3.10;;;15.40;74.60;;;;;;4915840;29;20238;-81
2023/02/18 11:52:38;;;;;;;12.02;3.53;;;15.40;74.40;;;;;;4924640;29;20058;-82
2023/02/18 11:55:12;;;;;;;9.98;4.05;;;15.50;74.50;;;;;;4922346;29;20035;-83
2023/02/18 11:57:44;;;;;;;17.33;5.25;;;15.50;74.30;;;;;;4919843;29;20118;-84
2023/02/18 12:00:23;;;;;;;8.23;2.63;;;15.60;74.40;;;;;;4919798;29;20474;-79
2023/02/18 12:02:53;;;;;;;8.75;3.08;;;15.60;74.30;;;;;;4913052;29;20031;-81
2023/02/18 12:05:25;;;;;;;11.70;3.33;;;15.60;74.20;;;;;;4906895;29;20492;-80
2023/02/18 12:07:58;;;;;;;11.25;3.97;;;15.60;74.10;;;;;;4921991;29;20055;-80
2023/02/18 12:10:43;;;;;;;10.40;4.00;;;15.60;74.10;;;;;;4921903;29;20108;-83
2023/02/18 12:13:24;;;;;;;10.77;4.07;;;15.60;74.00;;;;;;4905772;29;20099;-80
2023/02/18 12:16:18;;;;;;;13.60;3.97;;;15.70;74.10;;;;;;4920820;29;20036;-80
2023/02/18 12:19:09;;;;;;;9.45;2.42;;;15.80;74.10;;;;;;4919618;29;20032;-81
2023/02/18 12:21:51;;;;;;;7.93;2.35;;;15.90;74.00;;;;;;4906257;29;20048;-81
2023/02/18 12:24:40;;;;;;;12.52;3.30;;;15.90;73.80;;;;;;4917764;29;20039;-81
2023/02/18 12:27:32;;;;;;;8.15;2.72;;;15.90;73.70;;;;;;4922532;29;20134;-79
2023/02/18 12:30:19;;;;;;;9.60;3.25;;;15.90;73.80;;;;;;4919938;29;20056;-81
2023/02/18 12:33:01;;;;;;;7.25;3.08;;;15.90;73.70;;;;;;4923475;29;20093;-77
2023/02/18 12:35:59;;;;;;;10.50;3.22;;;15.90;73.60;;;;;;4916257;28;20377;-76
2023/02/18 12:38:37;;;;;;;9.45;2.80;;;15.90;73.50;;;;;;4914020;29;20048;-81
2023/02/18 12:41:30;;;;;;;10.77;3.75;;;16.00;73.70;;;;;;4923032;29;20047;-80
2023/02/18 12:44:18;;;;;;;5.85;2.90;;;16.00;73.50;;;;;;4904762;29;20032;-80
2023/02/18 12:47:18;;;;;;;6.32;2.22;;;16.10;73.60;;;;;;4923063;29;20044;-81
2023/02/18 12:50:14;;;;;;;6.55;2.72;;;16.10;73.40;;;;;;4918837;29;20036;-79
2023/02/18 12:53:05;;;;;;;8.05;2.50;;;16.20;73.50;;;;;;4920452;29;20064;-80
2023/02/18 12:55:55;;;;;;;9.90;3.10;;;16.20;73.20;;;;;;4921556;29;20040;-80
2023/02/18 12:58:47;;;;;;;9.15;2.47;;;16.30;73.30;;;;;;4912366;29;20058;-80
2023/02/18 13:01:19;;;;;;;8.60;3.28;;;16.30;73.10;;;;;;4920055;29;20050;-83
2023/02/18 13:04:09;;;;;;;7.75;2.50;;;16.40;73.20;;;;;;4928440;29;20032;-80